Time;durP1;ratioP1;P1;durP2;ratioP2;P2;SDS_P1;SDS_P2;PMS_P1;PMS_P2;Temp;Humidity;BMP_temperature;BMP_pressure;BME280_temperature;BME280_humidity;BME280_pressure;Samples;Min_cycle;Max_cycle;Signal;HPM_P1;HPM_P2
2022/03/11 00:03:43;;;;;;;20.13;15.63;;;;;;;;;;10322881;28;20034;-48
2022/03/11 00:08:43;;;;;;;21.73;15.63;;;;;;;;;;10316714;28;20476;-51
2022/03/11 00:13:43;;;;;;;21.07;16.10;;;;;;;;;;10334519;28;20074;-53
2022/03/11 00:18:44;;;;;;;23.77;15.77;;;;;;;;;;10321474;28;20666;-53
2022/03/11 00:23:44;;;;;;;23.33;15.73;;;;;;;;;;10345446;28;20464;-51
2022/03/11 00:28:44;;;;;;;20.20;14.87;;;;;;;;;;10337206;28;20138;-54
2022/03/11 00:33:45;;;;;;;21.40;14.53;;;;;;;;;;10337946;28;20022;-53
2022/03/11 00:38:45;;;;;;;19.40;14.82;;;;;;;;;;10338731;28;20034;-50
2022/03/11 00:43:46;;;;;;;21.30;14.80;;;;;;;;;;10336944;28;20026;-53
2022/03/11 00:48:46;;;;;;;20.70;14.67;;;;;;;;;;10331590;28;20916;-50
2022/03/11 00:53:46;;;;;;;21.17;14.90;;;;;;;;;;10346211;28;20398;-50
2022/03/11 00:58:47;;;;;;;21.33;14.20;;;;;;;;;;10331309;28;20397;-54
2022/03/11 01:03:47;;;;;;;20.35;13.98;;;;;;;;;;10340131;28;20203;-51
2022/03/11 01:08:47;;;;;;;16.10;13.27;;;;;;;;;;10341211;28;20132;-48
2022/03/11 01:13:48;;;;;;;19.00;13.13;;;;;;;;;;10331523;28;20077;-49
2022/03/11 01:18:49;;;;;;;19.43;14.20;;;;;;;;;;10315923;28;20476;-48
2022/03/11 01:23:50;;;;;;;17.45;12.90;;;;;;;;;;10336096;28;20036;-49
2022/03/11 01:28:50;;;;;;;17.15;12.48;;;;;;;;;;10351641;28;20037;-50
2022/03/11 01:33:50;;;;;;;16.60;12.85;;;;;;;;;;10330886;28;20029;-49
2022/03/11 01:38:51;;;;;;;18.03;13.13;;;;;;;;;;10324721;28;20031;-51
2022/03/11 01:43:58;;;;;;;15.90;12.57;;;;;;;;;;10332309;28;20496;-53
2022/03/11 01:49:00;;;;;;;17.30;12.48;;;;;;;;;;10338756;28;21014;-54
2022/03/11 01:54:00;;;;;;;15.73;12.38;;;;;;;;;;10345046;28;20022;-52
2022/03/11 01:59:01;;;;;;;15.80;12.77;;;;;;;;;;10338258;28;20026;-52
2022/03/11 02:04:01;;;;;;;17.30;12.32;;;;;;;;;;10346227;28;20456;-52
2022/03/11 02:09:03;;;;;;;19.77;12.77;;;;;;;;;;10330895;28;20230;-49
2022/03/11 02:14:05;;;;;;;17.77;12.43;;;;;;;;;;10328621;28;20021;-49
2022/03/11 02:19:05;;;;;;;14.23;11.40;;;;;;;;;;10319608;28;20039;-50
2022/03/11 02:24:09;;;;;;;15.00;11.75;;;;;;;;;;10331905;28;20421;-52
2022/03/11 02:29:10;;;;;;;19.02;12.82;;;;;;;;;;10316741;28;20037;-51
2022/03/11 02:34:10;;;;;;;17.33;13.00;;;;;;;;;;10334522;28;20124;-52
2022/03/11 02:39:10;;;;;;;17.60;11.88;;;;;;;;;;10336857;28;20498;-50
2022/03/11 02:44:11;;;;;;;18.93;12.03;;;;;;;;;;10328664;28;20312;-52
2022/03/11 02:49:11;;;;;;;17.47;12.73;;;;;;;;;;10323367;28;20844;-50
2022/03/11 02:54:11;;;;;;;16.57;11.60;;;;;;;;;;10322381;28;20451;-52
2022/03/11 02:59:12;;;;;;;16.37;11.37;;;;;;;;;;10322366;28;20045;-53
2022/03/11 03:04:13;;;;;;;17.87;11.27;;;;;;;;;;10339099;28;20034;-53
2022/03/11 03:09:13;;;;;;;15.00;11.45;;;;;;;;;;10326968;28;20480;-51
2022/03/11 03:14:14;;;;;;;15.70;11.33;;;;;;;;;;10333528;28;20377;-50
2022/03/11 03:19:14;;;;;;;15.25;12.07;;;;;;;;;;10326757;28;20476;-52
2022/03/11 03:24:16;;;;;;;13.95;11.40;;;;;;;;;;10345682;28;20372;-50
2022/03/11 03:29:17;;;;;;;14.05;10.93;;;;;;;;;;10320372;28;20549;-52
2022/03/11 03:34:17;;;;;;;13.67;11.00;;;;;;;;;;10347404;28;20193;-54
2022/03/11 03:39:18;;;;;;;16.90;11.20;;;;;;;;;;10347192;28;20528;-50
2022/03/11 03:44:18;;;;;;;15.70;11.25;;;;;;;;;;10359487;28;20304;-52
2022/03/11 03:49:19;;;;;;;19.07;11.73;;;;;;;;;;10343500;28;20045;-53
2022/03/11 03:54:20;;;;;;;16.48;10.70;;;;;;;;;;10350001;28;20459;-51
2022/03/11 03:59:20;;;;;;;13.00;9.53;;;;;;;;;;10347234;28;20027;-55
2022/03/11 04:04:20;;;;;;;13.90;10.20;;;;;;;;;;10348620;28;20456;-50
2022/03/11 04:09:21;;;;;;;13.93;9.77;;;;;;;;;;10342328;28;20477;-55
2022/03/11 04:14:21;;;;;;;12.60;10.33;;;;;;;;;;10346971;28;20030;-54
2022/03/11 04:19:21;;;;;;;11.53;9.20;;;;;;;;;;10346379;28;20088;-53
2022/03/11 04:24:23;;;;;;;13.33;9.80;;;;;;;;;;10335799;28;20045;-54
2022/03/11 04:29:26;;;;;;;12.50;9.40;;;;;;;;;;10332775;28;20619;-53
2022/03/11 04:34:26;;;;;;;11.77;8.98;;;;;;;;;;10339099;28;20037;-54
2022/03/11 04:39:26;;;;;;;11.03;8.63;;;;;;;;;;10334593;28;20411;-53
2022/03/11 04:44:27;;;;;;;11.17;8.97;;;;;;;;;;10325287;28;20447;-54
2022/03/11 04:49:27;;;;;;;10.98;8.80;;;;;;;;;;10356480;28;20558;-51
2022/03/11 04:54:27;;;;;;;10.13;8.60;;;;;;;;;;10345351;28;20121;-51
2022/03/11 04:59:28;;;;;;;11.97;8.90;;;;;;;;;;10337760;28;20745;-50
2022/03/11 05:04:28;;;;;;;10.23;7.53;;;;;;;;;;10338257;28;20037;-52
2022/03/11 05:09:29;;;;;;;12.27;8.13;;;;;;;;;;10342163;28;20023;-50
2022/03/11 05:14:29;;;;;;;8.87;7.97;;;;;;;;;;10333359;28;20459;-50
2022/03/11 05:19:29;;;;;;;10.43;8.30;;;;;;;;;;10350657;28;20471;-51
2022/03/11 05:24:30;;;;;;;8.63;7.43;;;;;;;;;;10332913;28;20040;-52
2022/03/11 05:29:32;;;;;;;12.60;7.60;;;;;;;;;;10319138;28;20022;-49
2022/03/11 05:34:39;;;;;;;11.10;8.25;;;;;;;;;;10331298;28;20451;-53
2022/03/11 05:39:40;;;;;;;10.73;7.82;;;;;;;;;;10348826;28;20015;-54
2022/03/11 05:44:40;;;;;;;9.63;7.60;;;;;;;;;;10308014;28;20056;-50
2022/03/11 05:49:41;;;;;;;9.50;7.28;;;;;;;;;;10341275;28;20480;-50
2022/03/11 05:54:41;;;;;;;8.60;7.28;;;;;;;;;;10348058;28;20037;-50
2022/03/11 05:59:41;;;;;;;9.77;7.25;;;;;;;;;;10339821;28;20409;-50
2022/03/11 06:04:42;;;;;;;8.60;7.18;;;;;;;;;;10328614;28;20034;-50
2022/03/11 06:09:42;;;;;;;9.97;6.97;;;;;;;;;;10331467;28;20050;-52
2022/03/11 06:14:43;;;;;;;7.03;6.32;;;;;;;;;;10336005;28;20455;-51
2022/03/11 06:19:43;;;;;;;9.63;6.53;;;;;;;;;;10342021;28;20417;-51
2022/03/11 06:24:43;;;;;;;9.33;6.33;;;;;;;;;;10340366;28;20033;-51
2022/03/11 06:29:44;;;;;;;8.53;6.53;;;;;;;;;;10336955;28;21140;-48
2022/03/11 06:34:44;;;;;;;11.20;6.97;;;;;;;;;;10338666;28;20465;-50
2022/03/11 06:39:45;;;;;;;6.68;6.00;;;;;;;;;;10336228;28;20369;-50
2022/03/11 06:44:45;;;;;;;7.73;5.90;;;;;;;;;;10334463;28;20022;-50
2022/03/11 06:49:46;;;;;;;8.30;6.00;;;;;;;;;;10336325;28;21140;-50
2022/03/11 06:54:46;;;;;;;7.27;5.37;;;;;;;;;;10312392;28;20126;-51
2022/03/11 06:59:47;;;;;;;6.63;5.37;;;;;;;;;;10355700;28;20597;-49
2022/03/11 07:04:48;;;;;;;7.30;5.80;;;;;;;;;;10356154;28;20459;-51
2022/03/11 07:09:48;;;;;;;7.47;5.90;;;;;;;;;;10340187;28;20442;-52
2022/03/11 07:14:49;;;;;;;11.15;5.70;;;;;;;;;;10338857;28;20105;-63
2022/03/11 07:19:49;;;;;;;7.43;6.10;;;;;;;;;;10343108;28;20438;-63
2022/03/11 07:24:50;;;;;;;10.83;5.97;;;;;;;;;;10338086;28;20465;-50
2022/03/11 07:29:50;;;;;;;6.90;5.40;;;;;;;;;;10331577;28;20488;-58
2022/03/11 07:34:51;;;;;;;12.17;5.80;;;;;;;;;;10336105;28;20030;-55
2022/03/11 07:39:51;;;;;;;13.43;5.80;;;;;;;;;;10325630;28;20521;-60
2022/03/11 07:44:51;;;;;;;7.83;5.80;;;;;;;;;;10331344;28;20467;-59
2022/03/11 07:49:52;;;;;;;13.47;6.23;;;;;;;;;;10338242;28;20074;-59
2022/03/11 07:54:52;;;;;;;14.50;6.00;;;;;;;;;;10323037;28;20580;-56
2022/03/11 07:59:53;;;;;;;7.87;5.97;;;;;;;;;;10308544;28;20068;-58
2022/03/11 08:04:53;;;;;;;14.43;6.17;;;;;;;;;;10305998;28;20820;-56
2022/03/11 08:09:53;;;;;;;6.70;5.32;;;;;;;;;;10292875;28;20467;-59
2022/03/11 08:14:54;;;;;;;8.00;5.50;;;;;;;;;;10327785;28;20034;-59
2022/03/11 08:19:55;;;;;;;10.85;5.32;;;;;;;;;;10343671;28;21021;-59
2022/03/11 08:24:55;;;;;;;10.43;5.20;;;;;;;;;;10331895;28;20381;-57
2022/03/11 08:29:56;;;;;;;7.50;5.80;;;;;;;;;;10330904;28;20475;-56
2022/03/11 08:34:57;;;;;;;9.60;5.90;;;;;;;;;;10341280;28;20030;-59
2022/03/11 08:39:57;;;;;;;12.98;6.00;;;;;;;;;;10339966;28;20034;-58
2022/03/11 08:45:00;;;;;;;8.77;5.07;;;;;;;;;;10331536;28;20030;-57
2022/03/11 08:50:02;;;;;;;7.78;5.53;;;;;;;;;;10336091;28;20030;-57
2022/03/11 08:55:03;;;;;;;9.10;5.38;;;;;;;;;;10328263;28;20113;-56
2022/03/11 09:00:12;;;;;;;10.40;4.80;;;;;;;;;;10344275;28;20038;-58
2022/03/11 09:05:17;;;;;;;8.00;5.13;;;;;;;;;;10344119;28;20018;-58
2022/03/11 09:10:18;;;;;;;9.82;5.40;;;;;;;;;;10336577;28;20029;-58
2022/03/11 09:15:18;;;;;;;6.95;4.80;;;;;;;;;;10341366;28;20034;-57
2022/03/11 09:20:19;;;;;;;12.15;5.07;;;;;;;;;;10338727;28;20050;-56
2022/03/11 09:25:20;;;;;;;15.13;7.05;;;;;;;;;;10337969;28;20030;-60
2022/03/11 09:30:20;;;;;;;10.30;6.20;;;;;;;;;;10330847;28;20118;-61
2022/03/11 09:35:20;;;;;;;12.23;5.73;;;;;;;;;;10330475;28;20378;-56
2022/03/11 09:40:21;;;;;;;16.63;6.10;;;;;;;;;;10329095;28;20511;-53
2022/03/11 09:45:23;;;;;;;11.20;5.97;;;;;;;;;;10328548;28;20022;-60
2022/03/11 09:50:23;;;;;;;12.73;5.50;;;;;;;;;;10338425;28;20041;-55
2022/03/11 09:55:24;;;;;;;7.80;4.85;;;;;;;;;;10337311;28;20460;-51
2022/03/11 10:00:24;;;;;;;8.60;5.35;;;;;;;;;;10299084;28;20027;-53
2022/03/11 10:05:44;;;;;;;8.60;5.07;;;;;;;;;;10305890;28;20086;-52
2022/03/11 10:10:45;;;;;;;11.23;6.35;;;;;;;;;;10323712;28;20029;-59
2022/03/11 10:15:45;;;;;;;8.10;5.30;;;;;;;;;;10328098;28;20037;-50
2022/03/11 10:20:46;;;;;;;10.83;5.03;;;;;;;;;;10334470;28;20482;-58
2022/03/11 10:25:51;;;;;;;7.38;5.13;;;;;;;;;;10320775;28;20554;-52
2022/03/11 10:30:52;;;;;;;8.07;4.80;;;;;;;;;;10312717;28;20030;-59
2022/03/11 10:35:52;;;;;;;8.55;4.85;;;;;;;;;;10332495;28;20474;-51
2022/03/11 10:40:54;;;;;;;12.47;5.20;;;;;;;;;;10325415;28;20105;-55
2022/03/11 10:45:56;;;;;;;9.77;5.50;;;;;;;;;;10305745;28;20465;-47
2022/03/11 10:50:57;;;;;;;9.63;5.30;;;;;;;;;;10314344;28;20038;-51
2022/03/11 10:56:04;;;;;;;7.07;4.33;;;;;;;;;;10326203;28;20022;-50
2022/03/11 11:01:04;;;;;;;8.82;4.55;;;;;;;;;;10323037;28;20898;-62
2022/03/11 11:06:05;;;;;;;9.27;5.20;;;;;;;;;;10326705;28;20057;-50
2022/03/11 11:11:06;;;;;;;10.15;4.72;;;;;;;;;;10309354;28;20480;-49
2022/03/11 11:16:08;;;;;;;7.28;4.20;;;;;;;;;;10314360;28;20026;-50
2022/03/11 11:21:09;;;;;;;7.18;4.30;;;;;;;;;;10353227;23;20054;-63
2022/03/11 11:26:10;;;;;;;6.03;4.70;;;;;;;;;;10345623;28;20022;-65
2022/03/11 11:31:11;;;;;;;5.95;3.88;;;;;;;;;;10364213;28;20061;-61
2022/03/11 11:36:11;;;;;;;6.05;4.18;;;;;;;;;;10341817;28;20034;-63
2022/03/11 11:41:17;;;;;;;8.23;4.40;;;;;;;;;;10355285;28;20493;-59
2022/03/11 11:46:19;;;;;;;6.35;4.53;;;;;;;;;;10362560;28;20440;-59
2022/03/11 11:51:42;;;;;;;14.77;5.68;;;;;;;;;;10365006;28;20033;-58
2022/03/11 11:57:00;;;;;;;8.48;5.30;;;;;;;;;;10367220;28;20508;-59
2022/03/11 12:02:02;;;;;;;6.55;4.90;;;;;;;;;;10370362;28;20030;-59
2022/03/11 12:07:17;;;;;;;8.98;5.18;;;;;;;;;;10363761;28;20341;-59
2022/03/11 12:12:20;;;;;;;10.68;4.60;;;;;;;;;;10360473;28;20029;-59
2022/03/11 12:17:42;;;;;;;7.93;5.05;;;;;;;;;;10359027;28;20045;-54
2022/03/11 12:23:06;;;;;;;6.93;4.93;;;;;;;;;;10361325;28;20026;-51
2022/03/11 12:28:09;;;;;;;6.95;4.43;;;;;;;;;;10357025;28;20500;-53
2022/03/11 12:33:24;;;;;;;7.32;4.50;;;;;;;;;;10360025;28;20030;-55
2022/03/11 12:38:27;;;;;;;8.90;4.00;;;;;;;;;;10360712;28;20430;-54
2022/03/11 12:43:28;;;;;;;6.38;4.50;;;;;;;;;;10361385;28;20069;-52
2022/03/11 12:48:31;;;;;;;11.95;4.35;;;;;;;;;;10358502;28;20045;-56
2022/03/11 12:53:32;;;;;;;7.57;4.38;;;;;;;;;;10338576;28;20188;-55
2022/03/11 12:58:34;;;;;;;6.18;4.28;;;;;;;;;;10336299;28;20473;-55
2022/03/11 13:03:37;;;;;;;6.10;4.20;;;;;;;;;;10364200;28;20029;-58
2022/03/11 13:08:39;;;;;;;11.48;4.15;;;;;;;;;;10362491;28;20469;-58
2022/03/11 13:13:40;;;;;;;10.40;4.63;;;;;;;;;;10359422;28;20265;-61
2022/03/11 13:18:41;;;;;;;10.50;4.18;;;;;;;;;;10364217;28;20041;-65
2022/03/11 13:23:44;;;;;;;6.82;3.83;;;;;;;;;;10363387;28;20029;-68
2022/03/11 13:28:52;;;;;;;6.65;4.32;;;;;;;;;;10367976;28;20033;-60
2022/03/11 13:34:02;;;;;;;7.87;3.90;;;;;;;;;;10358200;28;20054;-60
2022/03/11 13:39:12;;;;;;;8.73;4.13;;;;;;;;;;10345037;28;20034;-54
2022/03/11 13:44:13;;;;;;;5.35;3.60;;;;;;;;;;10350163;28;20044;-61
2022/03/11 13:49:13;;;;;;;5.65;3.95;;;;;;;;;;10356264;28;20021;-61
2022/03/11 13:54:27;;;;;;;5.97;4.28;;;;;;;;;;10363449;28;20461;-61
2022/03/11 13:59:32;;;;;;;5.68;3.88;;;;;;;;;;10356460;28;20116;-60
2022/03/11 14:04:32;;;;;;;6.10;4.20;;;;;;;;;;10357836;28;20034;-58
2022/03/11 14:09:33;;;;;;;8.37;4.03;;;;;;;;;;10356035;28;20037;-60
2022/03/11 14:14:34;;;;;;;8.65;3.88;;;;;;;;;;10345248;28;20452;-58
2022/03/11 14:19:34;;;;;;;4.45;3.45;;;;;;;;;;10361019;28;20043;-60
2022/03/11 14:24:35;;;;;;;7.60;3.95;;;;;;;;;;10354192;28;20586;-61
2022/03/11 14:29:35;;;;;;;6.70;3.50;;;;;;;;;;10355358;28;20072;-60
2022/03/11 14:34:35;;;;;;;4.90;3.40;;;;;;;;;;10363837;28;20038;-60
2022/03/11 14:39:36;;;;;;;6.57;3.37;;;;;;;;;;10355920;28;20834;-58
2022/03/11 14:44:36;;;;;;;4.68;3.38;;;;;;;;;;10349874;28;20510;-60
2022/03/11 14:49:37;;;;;;;5.67;3.80;;;;;;;;;;10359871;28;20026;-57
2022/03/11 14:54:38;;;;;;;5.55;3.50;;;;;;;;;;10359497;28;20563;-60
2022/03/11 14:59:38;;;;;;;7.43;3.80;;;;;;;;;;10353568;28;20109;-59
2022/03/11 15:04:39;;;;;;;9.97;4.10;;;;;;;;;;10346327;28;20038;-63
2022/03/11 15:09:39;;;;;;;20.27;4.53;;;;;;;;;;10360139;28;20574;-60
2022/03/11 15:14:40;;;;;;;8.13;3.90;;;;;;;;;;10361734;28;20458;-64
2022/03/11 15:19:41;;;;;;;9.13;4.10;;;;;;;;;;10360119;28;20038;-58
2022/03/11 15:24:43;;;;;;;9.85;3.95;;;;;;;;;;10365134;28;20496;-57
2022/03/11 15:29:43;;;;;;;10.43;4.32;;;;;;;;;;10363978;28;20396;-59
2022/03/11 15:34:44;;;;;;;11.95;4.43;;;;;;;;;;10367559;28;20042;-62
2022/03/11 15:39:45;;;;;;;9.60;4.47;;;;;;;;;;10352746;28;20036;-64
2022/03/11 15:44:45;;;;;;;14.60;5.05;;;;;;;;;;10357804;28;20032;-63
2022/03/11 15:49:46;;;;;;;9.93;4.20;;;;;;;;;;10363968;28;20046;-61
2022/03/11 15:54:52;;;;;;;18.08;4.57;;;;;;;;;;10355709;28;20034;-62
2022/03/11 15:59:52;;;;;;;8.82;4.60;;;;;;;;;;10366145;28;20033;-62
2022/03/11 16:04:52;;;;;;;6.43;3.93;;;;;;;;;;10371321;28;20032;-62
2022/03/11 16:09:53;;;;;;;12.83;3.93;;;;;;;;;;10355074;28;20585;-61
2022/03/11 16:14:53;;;;;;;18.13;4.67;;;;;;;;;;10369696;28;20025;-62
2022/03/11 16:19:54;;;;;;;8.40;4.27;;;;;;;;;;10362122;28;20042;-64
2022/03/11 16:24:55;;;;;;;7.13;3.92;;;;;;;;;;10360180;28;20029;-65
2022/03/11 16:29:57;;;;;;;8.73;3.90;;;;;;;;;;10351171;28;20033;-60
2022/03/11 16:34:57;;;;;;;7.45;3.95;;;;;;;;;;10362274;28;20120;-60
2022/03/11 16:39:57;;;;;;;12.07;3.42;;;;;;;;;;10346878;28;20168;-61
2022/03/11 16:44:58;;;;;;;7.27;4.20;;;;;;;;;;10370424;28;20034;-57
2022/03/11 16:50:02;;;;;;;7.70;4.10;;;;;;;;;;10361204;28;20479;-59
2022/03/11 16:55:03;;;;;;;11.85;3.45;;;;;;;;;;10357263;28;20036;-59
2022/03/11 17:00:06;;;;;;;10.77;3.80;;;;;;;;;;10358156;28;20026;-58
2022/03/11 17:05:07;;;;;;;8.00;3.90;;;;;;;;;;10352681;28;20026;-60
2022/03/11 17:10:07;;;;;;;11.02;3.75;;;;;;;;;;10363152;28;20470;-62
2022/03/11 17:15:08;;;;;;;6.70;3.50;;;;;;;;;;10362400;28;20033;-60
2022/03/11 17:20:09;;;;;;;8.40;3.70;;;;;;;;;;10356152;28;20046;-57
2022/03/11 17:25:10;;;;;;;7.85;3.65;;;;;;;;;;10365327;28;20030;-61
2022/03/11 17:30:11;;;;;;;9.23;3.83;;;;;;;;;;10346628;28;20437;-60
2022/03/11 17:35:12;;;;;;;6.35;3.53;;;;;;;;;;10356534;28;20049;-61
2022/03/11 17:40:12;;;;;;;9.18;3.38;;;;;;;;;;10363977;28;20036;-58
2022/03/11 17:45:13;;;;;;;7.28;3.35;;;;;;;;;;10356906;28;20030;-59
2022/03/11 17:50:14;;;;;;;6.40;3.50;;;;;;;;;;10362435;28;20034;-61
2022/03/11 17:55:15;;;;;;;5.05;3.17;;;;;;;;;;10360660;28;20160;-54
2022/03/11 18:00:16;;;;;;;13.07;3.70;;;;;;;;;;10355662;28;20493;-52
2022/03/11 18:05:16;;;;;;;11.17;3.47;;;;;;;;;;10361827;28;20022;-53
2022/03/11 18:10:17;;;;;;;4.32;2.83;;;;;;;;;;10353460;28;21075;-51
2022/03/11 18:15:19;;;;;;;8.18;4.10;;;;;;;;;;10359121;28;20030;-54
2022/03/11 18:20:20;;;;;;;4.15;3.10;;;;;;;;;;10353368;28;20046;-57
2022/03/11 18:25:21;;;;;;;4.22;2.90;;;;;;;;;;10349174;28;20743;-58
2022/03/11 18:30:22;;;;;;;8.07;3.70;;;;;;;;;;10349282;28;20120;-57
2022/03/11 18:35:23;;;;;;;5.97;3.22;;;;;;;;;;10341985;28;20092;-58
2022/03/11 18:40:23;;;;;;;5.75;3.53;;;;;;;;;;10353500;28;20434;-54
2022/03/11 18:45:24;;;;;;;6.47;3.33;;;;;;;;;;10356569;28;20025;-57
2022/03/11 18:50:25;;;;;;;4.63;2.80;;;;;;;;;;10355449;28;20126;-59
2022/03/11 18:55:25;;;;;;;5.75;2.85;;;;;;;;;;10370718;28;20818;-59
2022/03/11 19:00:29;;;;;;;7.53;3.22;;;;;;;;;;10373219;28;20061;-55
2022/03/11 19:05:30;;;;;;;5.68;2.92;;;;;;;;;;10371207;28;20487;-57
2022/03/11 19:10:30;;;;;;;7.07;2.92;;;;;;;;;;10365929;28;20184;-49
2022/03/11 19:15:31;;;;;;;11.95;3.45;;;;;;;;;;10364494;28;20037;-51
2022/03/11 19:20:32;;;;;;;14.27;3.63;;;;;;;;;;10372407;28;20046;-56
2022/03/11 19:25:32;;;;;;;7.30;3.38;;;;;;;;;;10361884;28;20479;-53
2022/03/11 19:30:32;;;;;;;4.97;3.10;;;;;;;;;;10359258;28;20033;-60
2022/03/11 19:35:33;;;;;;;9.20;3.50;;;;;;;;;;10363817;28;20513;-57
2022/03/11 19:40:35;;;;;;;7.63;3.65;;;;;;;;;;10361536;28;20079;-53
2022/03/11 19:45:37;;;;;;;6.70;3.70;;;;;;;;;;10365541;28;20473;-51
2022/03/11 19:50:37;;;;;;;5.68;3.75;;;;;;;;;;10365211;28;20025;-48
2022/03/11 19:55:38;;;;;;;7.17;3.03;;;;;;;;;;10371281;28;20030;-50
2022/03/11 20:00:38;;;;;;;7.60;3.33;;;;;;;;;;10370259;28;20483;-50
2022/03/11 20:05:40;;;;;;;8.83;3.87;;;;;;;;;;10370323;28;20026;-57
2022/03/11 20:10:45;;;;;;;5.28;3.38;;;;;;;;;;10367587;28;20475;-56
2022/03/11 20:15:46;;;;;;;5.93;3.53;;;;;;;;;;10359112;28;20715;-51
2022/03/11 20:20:46;;;;;;;4.95;2.95;;;;;;;;;;10357882;28;20041;-52
2022/03/11 20:25:47;;;;;;;6.05;3.85;;;;;;;;;;10360485;28;20313;-52
2022/03/11 20:30:48;;;;;;;10.18;4.00;;;;;;;;;;10357474;28;20026;-49
2022/03/11 20:35:49;;;;;;;6.53;4.10;;;;;;;;;;10366739;28;20029;-48
2022/03/11 20:40:49;;;;;;;7.57;3.40;;;;;;;;;;10362720;28;20109;-49
2022/03/11 20:45:52;;;;;;;8.95;4.28;;;;;;;;;;10365840;28;20505;-49
2022/03/11 20:50:54;;;;;;;6.07;3.60;;;;;;;;;;10364691;28;20037;-54
2022/03/11 20:55:56;;;;;;;11.73;3.85;;;;;;;;;;10348877;28;20025;-59
2022/03/11 21:00:57;;;;;;;10.35;4.13;;;;;;;;;;10369076;28;20026;-60
2022/03/11 21:05:58;;;;;;;10.27;4.05;;;;;;;;;;10356770;28;20021;-60
2022/03/11 21:10:59;;;;;;;14.68;4.28;;;;;;;;;;10364682;28;20468;-56
2022/03/11 21:16:00;;;;;;;8.55;3.55;;;;;;;;;;10359461;28;20049;-57
2022/03/11 21:21:00;;;;;;;12.47;3.90;;;;;;;;;;10353046;28;20129;-51
2022/03/11 21:26:00;;;;;;;4.53;3.17;;;;;;;;;;10357598;28;20461;-58
2022/03/11 21:31:01;;;;;;;11.97;3.73;;;;;;;;;;10345944;28;20480;-57
2022/03/11 21:36:02;;;;;;;6.72;3.70;;;;;;;;;;10363423;28;20131;-63
2022/03/11 21:41:03;;;;;;;7.55;3.38;;;;;;;;;;10356334;28;20056;-64
2022/03/11 21:46:03;;;;;;;5.07;3.50;;;;;;;;;;10353342;28;20025;-66
2022/03/11 21:51:04;;;;;;;7.25;3.53;;;;;;;;;;10321373;28;20068;-63
2022/03/11 21:56:07;;;;;;;11.13;3.58;;;;;;;;;;10359575;28;20042;-65
2022/03/11 22:01:07;;;;;;;4.63;2.97;;;;;;;;;;10360250;28;20110;-64
2022/03/11 22:06:08;;;;;;;7.38;3.40;;;;;;;;;;10348384;28;20034;-67
2022/03/11 22:11:08;;;;;;;9.93;3.72;;;;;;;;;;10347301;28;20034;-61
2022/03/11 22:16:11;;;;;;;5.00;3.20;;;;;;;;;;10354678;28;20168;-66
2022/03/11 22:21:13;;;;;;;4.95;3.45;;;;;;;;;;10350489;28;20091;-68
2022/03/11 22:26:15;;;;;;;5.18;3.17;;;;;;;;;;10342776;28;20046;-66
2022/03/11 22:31:15;;;;;;;7.28;3.13;;;;;;;;;;10343960;28;20048;-70
2022/03/11 22:36:19;;;;;;;9.18;3.13;;;;;;;;;;10344862;28;20018;-54
2022/03/11 22:41:20;;;;;;;6.55;3.60;;;;;;;;;;10330891;28;20398;-66
2022/03/11 22:46:29;;;;;;;8.60;3.42;;;;;;;;;;10343950;28;20109;-67
2022/03/11 22:51:29;;;;;;;10.70;3.60;;;;;;;;;;10353964;28;20034;-66
2022/03/11 22:56:30;;;;;;;12.13;3.55;;;;;;;;;;10338702;28;20512;-66
2022/03/11 23:01:31;;;;;;;8.75;3.97;;;;;;;;;;10349560;28;20057;-65
2022/03/11 23:11:50;;;;;;;;;;;;;;;;;;10359713;28;20459;-66
2022/03/11 23:16:51;;;;;;;12.43;3.25;;;;;;;;;;10350827;28;19917;-66
2022/03/11 23:21:53;;;;;;;7.95;3.63;;;;;;;;;;10351699;28;20412;-66
2022/03/11 23:26:53;;;;;;;8.52;3.78;;;;;;;;;;10358351;28;20060;-66
2022/03/11 23:31:54;;;;;;;11.45;3.53;;;;;;;;;;10351361;28;20040;-66
2022/03/11 23:36:54;;;;;;;6.93;3.47;;;;;;;;;;10350252;28;20030;-64
2022/03/11 23:41:56;;;;;;;8.23;3.63;;;;;;;;;;10366288;28;20026;-66
2022/03/11 23:46:57;;;;;;;8.55;3.42;;;;;;;;;;10356806;28;20858;-66
2022/03/11 23:51:58;;;;;;;5.05;3.25;;;;;;;;;;10356695;28;20080;-66
2022/03/11 23:56:58;;;;;;;10.30;3.67;;;;;;;;;;10368790;28;20040;-66
